Terminal Aerodrome Forecast
Issued by NWS

Home | Current Version | Previous Version | Text Only | Print | Product List | Glossary On
Versions: 1 2 3 4 5 6 7 8 9 10 11 12 13 14
000
FTUS45 KRIW 231100
TAFWRL
TAF
KWRL 231123Z 2312/2412 VRB05KT P6SM -SHRA BKN025
      TEMPO 2312/2316 5SM -SHRA BR BKN015
     FM231700 VRB05KT P6SM VCSH BKN035
     FM232000 VRB10G15KT P6SM VCTS SCT050CB BKN100
     FM240200 35007KT P6SM -SHRA SCT030 BKN050=

USA.gov is the U.S. government's official web portal to all federal, state and local government web resources and services.